THY80E LTFM-LTBJ
Flight info
| Callsign | THY80E |
|---|---|
| Flight time | 0h 44m |
| Altitude | 33000 |
| Route | IVGUS1E/36 IVGUS UM19 OVZOK |
| Aircraft | B77W/H-SDE1E2E3FGHIJ2J3J4J5M1RWXY/LB1D1 |
Departure
| Time | 2026-05-05 15:04 |
|---|---|
| Airport | İstanbul Airport (LTFM) |
Arrival
| Time | 2026-05-05 15:49 |
|---|---|
| Airport | Adnan Menderes International Airport (LTBJ) |
| Time | Latitude | Longitude | Altitude | Speed | Heading |
|---|---|---|---|---|---|
| 2026-05-05 14:26 | 41.26789 | 28.74744 | 335 ft | 0 kts | 179° |
| 2026-05-05 14:55 | 41.26804 | 28.74744 | 334 ft | 3 kts | 181° |
| 2026-05-05 14:55 | 41.26826 | 28.74747 | 335 ft | 3 kts | 204° |
| 2026-05-05 14:56 | 41.26841 | 28.74759 | 334 ft | 3 kts | 212° |
| 2026-05-05 14:56 | 41.26861 | 28.74771 | 333 ft | 3 kts | 181° |
| 2026-05-05 14:56 | 41.26880 | 28.74765 | 333 ft | 3 kts | 131° |
| 2026-05-05 14:56 | 41.26887 | 28.74742 | 333 ft | 3 kts | 89° |
| 2026-05-05 14:57 | 41.26887 | 28.74724 | 334 ft | 0 kts | 89° |
| 2026-05-05 14:59 | 41.26887 | 28.74735 | 333 ft | 6 kts | 89° |
| 2026-05-05 14:59 | 41.26888 | 28.74820 | 335 ft | 10 kts | 89° |
| 2026-05-05 15:00 | 41.26890 | 28.74911 | 337 ft | 10 kts | 89° |
| 2026-05-05 15:00 | 41.26890 | 28.74980 | 339 ft | 13 kts | 89° |
| 2026-05-05 15:00 | 41.26893 | 28.75148 | 339 ft | 13 kts | 89° |
| 2026-05-05 15:00 | 41.26895 | 28.75268 | 339 ft | 11 kts | 89° |
| 2026-05-05 15:01 | 41.26884 | 28.75366 | 333 ft | 11 kts | 127° |
| 2026-05-05 15:01 | 41.26814 | 28.75382 | 334 ft | 11 kts | 185° |
| 2026-05-05 15:01 | 41.26737 | 28.75380 | 335 ft | 12 kts | 179° |
| 2026-05-05 15:01 | 41.26650 | 28.75382 | 338 ft | 13 kts | 179° |
| 2026-05-05 15:02 | 41.26563 | 28.75384 | 337 ft | 13 kts | 179° |
| 2026-05-05 15:02 | 41.26478 | 28.75387 | 334 ft | 11 kts | 174° |
| 2026-05-05 15:02 | 41.26426 | 28.75449 | 335 ft | 11 kts | 99° |
| 2026-05-05 15:02 | 41.26425 | 28.75555 | 335 ft | 11 kts | 89° |
| 2026-05-05 15:03 | 41.26434 | 28.75643 | 335 ft | 9 kts | 58° |
| 2026-05-05 15:03 | 41.26480 | 28.75662 | 336 ft | 5 kts | 0° |
| 2026-05-05 15:03 | 41.26487 | 28.75662 | 338 ft | 1 kts | 359° |
| 2026-05-05 15:03 | 41.26536 | 28.75660 | 334 ft | 32 kts | 358° |
| 2026-05-05 15:04 | 41.27039 | 28.75652 | 336 ft | 110 kts | 359° |
| 2026-05-05 15:04 | 41.28030 | 28.75638 | 349 ft | 171 kts | 360° |
| 2026-05-05 15:04 | 41.29267 | 28.75602 | 846 ft | 180 kts | 359° |
| 2026-05-05 15:04 | 41.30477 | 28.75857 | 1565 ft | 185 kts | 27° |
| 2026-05-05 15:05 | 41.32254 | 28.78271 | 2709 ft | 189 kts | 26° |
| 2026-05-05 15:05 | 41.33448 | 28.79037 | 3251 ft | 194 kts | 24° |
| 2026-05-05 15:05 | 41.34717 | 28.79893 | 3575 ft | 215 kts | 25° |
| 2026-05-05 15:06 | 41.36104 | 28.80878 | 3906 ft | 237 kts | 27° |
| 2026-05-05 15:06 | 41.37486 | 28.82191 | 4356 ft | 253 kts | 49° |
| 2026-05-05 15:06 | 41.38267 | 28.84306 | 5139 ft | 261 kts | 73° |
| 2026-05-05 15:06 | 41.38440 | 28.86697 | 6007 ft | 261 kts | 85° |
| 2026-05-05 15:07 | 41.38452 | 28.89176 | 6601 ft | 272 kts | 86° |
| 2026-05-05 15:07 | 41.38132 | 28.91696 | 7135 ft | 287 kts | 112° |
| 2026-05-05 15:07 | 41.36896 | 28.93795 | 7913 ft | 295 kts | 140° |
| 2026-05-05 15:07 | 41.35004 | 28.94926 | 8534 ft | 307 kts | 172° |
| 2026-05-05 15:08 | 41.32867 | 28.94963 | 9165 ft | 309 kts | 183° |
| 2026-05-05 15:08 | 41.30693 | 28.94879 | 9862 ft | 315 kts | 181° |
| 2026-05-05 15:08 | 41.28477 | 28.94862 | 10458 ft | 325 kts | 180° |
| 2026-05-05 15:08 | 41.26134 | 28.94835 | 10635 ft | 346 kts | 185° |
| 2026-05-05 15:09 | 41.23771 | 28.93956 | 10781 ft | 363 kts | 210° |
| 2026-05-05 15:09 | 41.21636 | 28.92030 | 11091 ft | 378 kts | 224° |
| 2026-05-05 15:09 | 41.19804 | 28.89484 | 11741 ft | 384 kts | 237° |
| 2026-05-05 15:09 | 41.18313 | 28.86515 | 12497 ft | 389 kts | 242° |
| 2026-05-05 15:10 | 41.16886 | 28.83433 | 13429 ft | 394 kts | 242° |
| 2026-05-05 15:10 | 41.15461 | 28.80305 | 14357 ft | 398 kts | 242° |
| 2026-05-05 15:10 | 41.14020 | 28.77149 | 15280 ft | 401 kts | 242° |
| 2026-05-05 15:10 | 41.12560 | 28.73977 | 16190 ft | 404 kts | 241° |
| 2026-05-05 15:11 | 41.11080 | 28.70787 | 17075 ft | 408 kts | 241° |
| 2026-05-05 15:11 | 41.09577 | 28.67571 | 17939 ft | 412 kts | 240° |
| 2026-05-05 15:11 | 41.08052 | 28.64324 | 18688 ft | 419 kts | 241° |
| 2026-05-05 15:11 | 41.06494 | 28.61017 | 19315 ft | 425 kts | 240° |
| 2026-05-05 15:12 | 41.04919 | 28.57687 | 20121 ft | 428 kts | 240° |
| 2026-05-05 15:12 | 41.03334 | 28.54341 | 20911 ft | 430 kts | 240° |
| 2026-05-05 15:12 | 41.01736 | 28.50972 | 21654 ft | 433 kts | 240° |
| 2026-05-05 15:12 | 41.00126 | 28.47579 | 22361 ft | 438 kts | 240° |
| 2026-05-05 15:13 | 40.98497 | 28.44148 | 23050 ft | 442 kts | 239° |
| 2026-05-05 15:13 | 40.96854 | 28.40691 | 23725 ft | 446 kts | 239° |
| 2026-05-05 15:13 | 40.95194 | 28.37205 | 24283 ft | 449 kts | 240° |
| 2026-05-05 15:13 | 40.93546 | 28.33745 | 24851 ft | 452 kts | 240° |
| 2026-05-05 15:14 | 40.91862 | 28.30212 | 25411 ft | 456 kts | 240° |
| 2026-05-05 15:14 | 40.90163 | 28.26654 | 25900 ft | 460 kts | 240° |
| 2026-05-05 15:14 | 40.88447 | 28.23063 | 26408 ft | 464 kts | 240° |
| 2026-05-05 15:14 | 40.86713 | 28.19441 | 26909 ft | 468 kts | 240° |
| 2026-05-05 15:15 | 40.84966 | 28.15795 | 27391 ft | 472 kts | 240° |
| 2026-05-05 15:15 | 40.83204 | 28.12122 | 27881 ft | 475 kts | 240° |
| 2026-05-05 15:15 | 40.81428 | 28.08425 | 28341 ft | 479 kts | 240° |
| 2026-05-05 15:15 | 40.79634 | 28.04696 | 28765 ft | 483 kts | 241° |
| 2026-05-05 15:16 | 40.77826 | 28.00939 | 29169 ft | 487 kts | 241° |
| 2026-05-05 15:16 | 40.76005 | 27.97161 | 29602 ft | 489 kts | 241° |
| 2026-05-05 15:16 | 40.74177 | 27.93375 | 30172 ft | 489 kts | 241° |
| 2026-05-05 15:16 | 40.72355 | 27.89607 | 30734 ft | 486 kts | 241° |
| 2026-05-05 15:17 | 40.70546 | 27.85872 | 31335 ft | 481 kts | 241° |
| 2026-05-05 15:17 | 40.69357 | 27.83419 | 31796 ft | 477 kts | 241° |
| 2026-05-05 15:17 | 40.67580 | 27.79755 | 32407 ft | 473 kts | 241° |
| 2026-05-05 15:17 | 40.65213 | 27.74873 | 33032 ft | 473 kts | 241° |
| 2026-05-05 15:18 | 40.64037 | 27.72449 | 33094 ft | 476 kts | 241° |
| 2026-05-05 15:18 | 40.60455 | 27.65105 | 33057 ft | 472 kts | 239° |
| 2026-05-05 15:18 | 40.58276 | 27.61854 | 33060 ft | 481 kts | 222° |
| 2026-05-05 15:19 | 40.55385 | 27.59582 | 33069 ft | 491 kts | 204° |
| 2026-05-05 15:19 | 40.52059 | 27.58443 | 33073 ft | 499 kts | 188° |
| 2026-05-05 15:19 | 40.48585 | 27.58524 | 33075 ft | 501 kts | 174° |
| 2026-05-05 15:20 | 40.41637 | 27.59679 | 33069 ft | 505 kts | 176° |
| 2026-05-05 15:20 | 40.34639 | 27.60158 | 33069 ft | 503 kts | 184° |
| 2026-05-05 15:21 | 40.27727 | 27.59113 | 33075 ft | 499 kts | 191° |
| 2026-05-05 15:21 | 40.20882 | 27.57714 | 33064 ft | 498 kts | 191° |
| 2026-05-05 15:22 | 40.14040 | 27.56374 | 33067 ft | 496 kts | 191° |
| 2026-05-05 15:22 | 40.07221 | 27.55072 | 33064 ft | 495 kts | 191° |
| 2026-05-05 15:23 | 40.00411 | 27.53773 | 33067 ft | 494 kts | 191° |
| 2026-05-05 15:23 | 39.93614 | 27.52475 | 33065 ft | 493 kts | 191° |
| 2026-05-05 15:24 | 39.86825 | 27.51180 | 33072 ft | 493 kts | 191° |
| 2026-05-05 15:24 | 39.83470 | 27.50545 | 33054 ft | 482 kts | 191° |
| 2026-05-05 15:24 | 39.80198 | 27.49926 | 33029 ft | 469 kts | 192° |
| 2026-05-05 15:24 | 39.77003 | 27.49320 | 32794 ft | 460 kts | 192° |
| 2026-05-05 15:25 | 39.73893 | 27.48728 | 32342 ft | 456 kts | 192° |
| 2026-05-05 15:25 | 39.70761 | 27.48132 | 31809 ft | 455 kts | 192° |
| 2026-05-05 15:25 | 39.67650 | 27.47463 | 31306 ft | 451 kts | 194° |
| 2026-05-05 15:25 | 39.64573 | 27.46686 | 30773 ft | 450 kts | 195° |
| 2026-05-05 15:26 | 39.61516 | 27.45868 | 30285 ft | 447 kts | 195° |
| 2026-05-05 15:26 | 39.58480 | 27.45050 | 29785 ft | 445 kts | 195° |
| 2026-05-05 15:26 | 39.55457 | 27.44244 | 29304 ft | 441 kts | 195° |
| 2026-05-05 15:26 | 39.52460 | 27.43458 | 28828 ft | 438 kts | 195° |
| 2026-05-05 15:27 | 39.49483 | 27.42687 | 28364 ft | 435 kts | 194° |
| 2026-05-05 15:27 | 39.46525 | 27.41928 | 27889 ft | 432 kts | 194° |
| 2026-05-05 15:27 | 39.43580 | 27.41176 | 27433 ft | 430 kts | 194° |
| 2026-05-05 15:27 | 39.40658 | 27.40433 | 26993 ft | 427 kts | 194° |
| 2026-05-05 15:28 | 39.37751 | 27.39694 | 26549 ft | 424 kts | 194° |
| 2026-05-05 15:28 | 39.34863 | 27.38960 | 26118 ft | 422 kts | 194° |
| 2026-05-05 15:28 | 39.31990 | 27.38231 | 25673 ft | 420 kts | 194° |
| 2026-05-05 15:28 | 39.29132 | 27.37505 | 25251 ft | 418 kts | 194° |
| 2026-05-05 15:29 | 39.26286 | 27.36783 | 24850 ft | 415 kts | 194° |
| 2026-05-05 15:29 | 39.23456 | 27.36065 | 24442 ft | 413 kts | 194° |
| 2026-05-05 15:29 | 39.20639 | 27.35352 | 24025 ft | 412 kts | 194° |
| 2026-05-05 15:29 | 39.17837 | 27.34643 | 23639 ft | 410 kts | 194° |
| 2026-05-05 15:30 | 39.15047 | 27.33938 | 23187 ft | 407 kts | 194° |
| 2026-05-05 15:30 | 39.12275 | 27.33238 | 22746 ft | 405 kts | 194° |
| 2026-05-05 15:30 | 39.09521 | 27.32543 | 22331 ft | 402 kts | 193° |
| 2026-05-05 15:30 | 39.06786 | 27.31853 | 21913 ft | 400 kts | 193° |
| 2026-05-05 15:31 | 39.04064 | 27.31167 | 21519 ft | 397 kts | 193° |
| 2026-05-05 15:31 | 39.01366 | 27.30488 | 21151 ft | 394 kts | 193° |
| 2026-05-05 15:31 | 38.98685 | 27.29813 | 20744 ft | 392 kts | 193° |
| 2026-05-05 15:31 | 38.96015 | 27.29141 | 20352 ft | 390 kts | 193° |
| 2026-05-05 15:32 | 38.93357 | 27.28474 | 19966 ft | 388 kts | 193° |
| 2026-05-05 15:32 | 38.90714 | 27.27810 | 19593 ft | 386 kts | 193° |
| 2026-05-05 15:32 | 38.88087 | 27.27151 | 19200 ft | 384 kts | 193° |
| 2026-05-05 15:32 | 38.85522 | 27.26508 | 18836 ft | 382 kts | 193° |
| 2026-05-05 15:33 | 38.82880 | 27.25847 | 18461 ft | 381 kts | 193° |
| 2026-05-05 15:33 | 38.80289 | 27.25198 | 18109 ft | 378 kts | 193° |
| 2026-05-05 15:33 | 38.77711 | 27.24552 | 17719 ft | 376 kts | 193° |
| 2026-05-05 15:33 | 38.75152 | 27.23913 | 17334 ft | 374 kts | 193° |
| 2026-05-05 15:34 | 38.72604 | 27.23276 | 16961 ft | 372 kts | 193° |
| 2026-05-05 15:34 | 38.70103 | 27.22651 | 16576 ft | 370 kts | 193° |
| 2026-05-05 15:34 | 38.67593 | 27.22026 | 16112 ft | 366 kts | 193° |
| 2026-05-05 15:34 | 38.65097 | 27.21405 | 15608 ft | 365 kts | 193° |
| 2026-05-05 15:35 | 38.62611 | 27.20784 | 15154 ft | 363 kts | 193° |
| 2026-05-05 15:35 | 38.60139 | 27.20167 | 14742 ft | 360 kts | 193° |
| 2026-05-05 15:35 | 38.57689 | 27.19558 | 14329 ft | 358 kts | 193° |
| 2026-05-05 15:35 | 38.55247 | 27.19018 | 13897 ft | 355 kts | 186° |
| 2026-05-05 15:36 | 38.52804 | 27.19308 | 13359 ft | 354 kts | 165° |
| 2026-05-05 15:36 | 38.50431 | 27.20111 | 12818 ft | 351 kts | 165° |
| 2026-05-05 15:36 | 38.48073 | 27.20875 | 12318 ft | 349 kts | 165° |
| 2026-05-05 15:36 | 38.45726 | 27.21608 | 11829 ft | 346 kts | 166° |
| 2026-05-05 15:37 | 38.43414 | 27.22316 | 11603 ft | 335 kts | 166° |
| 2026-05-05 15:37 | 38.41208 | 27.22984 | 11407 ft | 318 kts | 166° |
| 2026-05-05 15:37 | 38.39085 | 27.23622 | 11081 ft | 309 kts | 166° |
| 2026-05-05 15:37 | 38.37011 | 27.24247 | 10660 ft | 304 kts | 166° |
| 2026-05-05 15:38 | 38.34958 | 27.24863 | 10184 ft | 302 kts | 165° |
| 2026-05-05 15:38 | 38.32915 | 27.25476 | 9675 ft | 301 kts | 165° |
| 2026-05-05 15:38 | 38.30895 | 27.26081 | 9284 ft | 295 kts | 166° |
| 2026-05-05 15:38 | 38.28929 | 27.26669 | 8971 ft | 287 kts | 166° |
| 2026-05-05 15:39 | 38.27002 | 27.27245 | 8658 ft | 281 kts | 166° |
| 2026-05-05 15:39 | 38.25115 | 27.27810 | 8258 ft | 277 kts | 166° |
| 2026-05-05 15:39 | 38.23245 | 27.28369 | 7834 ft | 275 kts | 166° |
| 2026-05-05 15:39 | 38.21388 | 27.28923 | 7426 ft | 275 kts | 166° |
| 2026-05-05 15:40 | 38.19524 | 27.29481 | 7088 ft | 276 kts | 166° |
| 2026-05-05 15:40 | 38.17654 | 27.30038 | 6751 ft | 276 kts | 166° |
| 2026-05-05 15:40 | 38.15786 | 27.30597 | 6413 ft | 276 kts | 167° |
| 2026-05-05 15:40 | 38.13916 | 27.31153 | 6065 ft | 276 kts | 167° |
| 2026-05-05 15:41 | 38.12051 | 27.31709 | 5734 ft | 275 kts | 167° |
| 2026-05-05 15:41 | 38.10184 | 27.32265 | 5391 ft | 276 kts | 166° |
| 2026-05-05 15:41 | 38.08319 | 27.32815 | 5051 ft | 273 kts | 168° |
| 2026-05-05 15:41 | 38.06460 | 27.32858 | 4746 ft | 266 kts | 196° |
| 2026-05-05 15:42 | 38.04866 | 27.31815 | 4528 ft | 254 kts | 226° |
| 2026-05-05 15:42 | 38.03930 | 27.30051 | 4450 ft | 233 kts | 250° |
| 2026-05-05 15:42 | 38.03370 | 27.28101 | 4315 ft | 246 kts | 255° |
| 2026-05-05 15:42 | 38.03022 | 27.25989 | 4160 ft | 244 kts | 276° |
| 2026-05-05 15:43 | 38.03442 | 27.23965 | 4081 ft | 235 kts | 299° |
| 2026-05-05 15:43 | 38.04167 | 27.22120 | 3960 ft | 232 kts | 300° |
| 2026-05-05 15:43 | 38.04908 | 27.20311 | 3861 ft | 230 kts | 300° |
| 2026-05-05 15:43 | 38.05666 | 27.18499 | 3752 ft | 233 kts | 302° |
| 2026-05-05 15:44 | 38.06750 | 27.17001 | 3644 ft | 233 kts | 331° |
| 2026-05-05 15:44 | 38.08287 | 27.16456 | 3558 ft | 232 kts | 2° |
| 2026-05-05 15:44 | 38.09847 | 27.16835 | 3473 ft | 224 kts | 14° |
| 2026-05-05 15:44 | 38.11318 | 27.17371 | 3360 ft | 215 kts | 14° |
| 2026-05-05 15:45 | 38.12719 | 27.17882 | 3255 ft | 203 kts | 14° |
| 2026-05-05 15:45 | 38.14045 | 27.18371 | 3136 ft | 197 kts | 14° |
| 2026-05-05 15:45 | 38.15323 | 27.18845 | 3049 ft | 185 kts | 14° |
| 2026-05-05 15:45 | 38.16497 | 27.19265 | 2942 ft | 168 kts | 8° |
| 2026-05-05 15:46 | 38.17596 | 27.19167 | 2732 ft | 156 kts | 339° |
| 2026-05-05 15:46 | 38.18634 | 27.18695 | 2588 ft | 163 kts | 345° |
| 2026-05-05 15:46 | 38.19753 | 27.18352 | 2482 ft | 167 kts | 347° |
| 2026-05-05 15:46 | 38.20861 | 27.18001 | 2278 ft | 163 kts | 346° |
| 2026-05-05 15:47 | 38.21951 | 27.17667 | 1863 ft | 159 kts | 346° |
| 2026-05-05 15:47 | 38.22650 | 27.17464 | 1633 ft | 153 kts | 346° |
| 2026-05-05 15:47 | 38.23960 | 27.17061 | 1296 ft | 142 kts | 342° |
| 2026-05-05 15:47 | 38.24971 | 27.16763 | 1061 ft | 151 kts | 346° |
| 2026-05-05 15:48 | 38.25978 | 27.16471 | 795 ft | 144 kts | 346° |
| 2026-05-05 15:48 | 38.26933 | 27.16191 | 622 ft | 139 kts | 343° |
| 2026-05-05 15:48 | 38.27876 | 27.15896 | 469 ft | 136 kts | 344° |
| 2026-05-05 15:48 | 38.28730 | 27.15630 | 419 ft | 113 kts | 346° |
| 2026-05-05 15:49 | 38.29313 | 27.15456 | 414 ft | 59 kts | 346° |
| 2026-05-05 15:49 | 38.29620 | 27.15363 | 415 ft | 46 kts | 346° |
| 2026-05-05 15:49 | 38.29884 | 27.15284 | 411 ft | 26 kts | 347° |
| 2026-05-05 15:49 | 38.29969 | 27.15252 | 412 ft | 8 kts | 325° |
| 2026-05-05 15:50 | 38.29981 | 27.15214 | 413 ft | 2 kts | 275° |
| 2026-05-05 15:50 | 38.29977 | 27.15156 | 413 ft | 11 kts | 260° |
| 2026-05-05 15:50 | 38.29958 | 27.15051 | 411 ft | 12 kts | 257° |
| 2026-05-05 15:50 | 38.29933 | 27.14963 | 406 ft | 9 kts | 226° |
| 2026-05-05 15:51 | 38.29886 | 27.14966 | 408 ft | 7 kts | 165° |
| 2026-05-05 15:51 | 38.29830 | 27.14983 | 408 ft | 11 kts | 166° |
| 2026-05-05 15:51 | 38.29748 | 27.15008 | 411 ft | 12 kts | 166° |
| 2026-05-05 15:51 | 38.29666 | 27.15034 | 412 ft | 12 kts | 166° |
| 2026-05-05 15:52 | 38.29583 | 27.15060 | 408 ft | 12 kts | 167° |
| 2026-05-05 15:52 | 38.29500 | 27.15083 | 408 ft | 12 kts | 168° |
| 2026-05-05 15:52 | 38.29418 | 27.15108 | 411 ft | 12 kts | 166° |
| 2026-05-05 15:52 | 38.29336 | 27.15133 | 410 ft | 12 kts | 166° |
| 2026-05-05 15:53 | 38.29253 | 27.15158 | 413 ft | 12 kts | 167° |
| 2026-05-05 15:53 | 38.29170 | 27.15183 | 411 ft | 12 kts | 166° |
| 2026-05-05 15:53 | 38.29090 | 27.15207 | 415 ft | 11 kts | 167° |
| 2026-05-05 15:53 | 38.29036 | 27.15221 | 416 ft | 7 kts | 176° |
| 2026-05-05 15:54 | 38.29003 | 27.15185 | 406 ft | 6 kts | 250° |
| 2026-05-05 15:54 | 38.28998 | 27.15157 | 411 ft | 1 kts | 256° |
| 2026-05-05 15:54 | 38.28997 | 27.15153 | 408 ft | 0 kts | 256° |